Etusivu
METAR-TAF:

METAR-TAF

Lentoasemat :

Princeton, Brittiläinen Kolumbia, Kanada

Leveyspiiri: 49-28N, Pituuspiiri: 120-31W, korkeus merenpinnasta: 700 m

Tämänhetkinen sää

Tämä raportti tehtiin 40 minuuttia sitten, kello 17.00 UTC
Tuuli 2 kn eri suunnista
Lämpötila 14°C
Kosteus 55%
Ilmanpaine 1008 hPa
Näkyvyys: 40.2 km
Muutamia pilviä 5800 ft:n korkeudessa
Hajanaisia pilviä 10000 ft:n korkeudessa
Hajonneita pilviä 29000 ft:n korkeudessa

METAR: CYDC 191700Z VRB02KT 25SM FEW058 SCT100 BKN290 14/05 A2978 RMK SC1AS3CI3 SLP080 DENSITY ALT 2900FT

Aika: 10:40 (17:40 UTC)


TAF: puuttuu

Säähavainnot ja -ennusteet yli 4000 lentoasemalta (METAR- ja TAF-raportit).

Käytössä olevat sääasemat on merkitty karttaan keltaisilla ja punaisilla pisteillä.

Aseta hiiri pisteen päälle nähdäksesi sääaseman nimen.

Klikkaa sitten nähdäksesi säähavainnot ja -ennusteet.

Kartan vaihtaminen: klikkaa mustalla rastilla varustettuja vihreitä pisteitä, niin voit zoomata sisään; viivalla varustettua vihreää pistettä, niin voit zoomata ulos tai vihreitä nuolia, niin pääset viereisille kartoille.


METAR-TAF: